Latest Coastal Weather Observations for Robe Airport

IDS60701

Issued at 7:41 am CDT Monday 2 February 2015 (issued every 10 minutes, with the page automatically refreshed every 10 minutes)

About coastal observations | Map of coastal stations | Coastal observations for SA | Marine services | Other Formats
Station Details ID: 026105 Name: ROBE AIRFIELD Lat: -37.18 Lon: 139.81 Height: 3.0 m
Data from the previous 72 hours. | See also: Recent months at Robe Airport
Date/Time
CDT
Temp

°C
Wind Pressure Rain
since 9am
mm
Weather Cloud Vis
km
Sea
Height
m
Swell
Dir
 
Speed
knots
Gust
knots
hPa Trend Height
m
Period
s
Dir
02/07:30am 14.7 SSE 11 16 1022.1 - 0.0 - - - - - - -
02/07:00am 14.4 SSE 13 18 1021.9 - 0.0 - - - - - - -
02/06:30am 14.4 SSE 12 19 1021.5 - 0.0 - - - - - - -
02/06:00am 14.4 SSE 12 18 1021.1 - 0.0 - - - - - - -
02/05:30am 14.3 SSE 10 15 1020.6 - 0.0 - - - - - - -
02/05:00am 14.3 SSE 13 21 1020.6 - 0.0 - - - - - - -
02/04:30am 14.4 SSE 13 19 1020.4 - 0.0 - - - - - - -
02/04:00am 14.6 SSE 11 16 1020.4 - 0.0 - - - - - - -
02/03:30am 14.6 SSE 11 16 1020.3 - 0.0 - - - - - - -
02/03:00am 14.5 SSE 13 21 1020.4 - 0.0 - - - - - - -
02/02:30am 14.7 SSE 15 21 1020.4 - 0.0 - - - - - - -
02/02:00am 14.6 SSE 13 20 1020.5 - 0.0 - - - - - - -
02/01:30am 13.8 S 10 14 1020.7 - 0.0 - - - - - - -
02/01:00am 13.4 SSE 12 16 1020.8 - 0.0 - - - - - - -
02/12:30am 13.2 SSE 9 14 1020.9 - 0.0 - - - - - - -
02/12:00am 13.7 SSE 10 13 1021.0 - 0.0 - - - - - - -
 
Date/Time
CDT
Temp

°C
Wind Pressure Rain
since 9am
mm
Weather Cloud Vis
km
Sea
Height
m
Swell
Dir
 
Speed
knots
Gust
knots
hPa Trend Height
m
Period
s
Dir
01/11:30pm 13.8 SSE 11 17 1020.8 - 0.0 - - - - - - -
01/11:00pm 13.7 SSE 11 15 1021.0 - 0.0 - - - - - - -
01/10:30pm 14.0 SSE 12 17 1021.0 - 0.0 - - - - - - -
01/10:00pm 14.1 SSE 14 20 1020.9 - 0.0 - - - - - - -
01/09:30pm 15.3 SSE 14 18 1020.5 - 0.0 - - - - - - -
01/09:00pm 15.4 SSE 15 24 1020.1 - 0.0 - - - - - - -
01/08:30pm 15.4 SSE 14 19 1020.0 - 0.0 - - - - - - -
01/08:00pm 15.4 SSE 15 19 1019.7 - 0.0 - - - - - - -
01/07:30pm 16.0 SSE 16 23 1019.4 - 0.0 - - - - - - -
01/07:00pm 16.2 SSE 17 24 1019.1 - 0.0 - - - - - - -
01/06:30pm 16.2 SSE 16 25 1018.9 - 0.0 - - - - - - -
01/06:00pm 16.6 S 16 26 1018.6 - 0.0 - - - - - - -
01/05:30pm 17.9 S 18 25 1018.4 - 0.0 - - - - - - -
01/05:15pm 17.3 S 17 27 1018.5 - 0.0 - - - - - - -
01/05:00pm 18.0 S 19 26 1018.4 - 0.0 - - - - - - -
01/04:30pm 18.9 S 18 25 1018.2 - 0.0 - - - - - - -
01/04:00pm 17.7 SSE 18 25 1018.2 - 0.0 - - - - - - -
01/03:30pm 18.4 SSE 18 24 1018.1 - 0.0 - - - - - - -
01/03:00pm 17.9 S 20 28 1018.3 - 0.0 - - - - - - -
01/02:30pm 18.4 S 19 25 1018.3 - 0.0 - - - - - - -
01/02:00pm 18.1 S 18 24 1018.3 - 0.0 - - - - - - -
01/01:30pm 18.3 S 16 23 1018.4 - 0.0 - - - - - - -
01/01:00pm 18.0 S 17 24 1018.6 - 0.0 - - - - - - -
01/12:30pm 18.1 S 18 25 1018.9 - 0.0 - - - - - - -
01/12:00pm 18.4 S 16 22 1018.7 - 0.0 - - - - - - -
01/11:30am 17.7 S 16 20 1018.8 - 0.0 - - - - - - -
01/11:00am 17.4 S 15 21 1018.9 - 0.0 - - - - - - -
01/10:30am 17.3 SSE 14 19 1018.7 - 0.0 - - - - - - -
01/10:00am 17.2 SSE 14 20 1018.3 - 0.0 - - - - - - -
01/09:30am 16.4 SSE 13 19 1018.3 - 0.0 - - - - - - -
01/09:00am 15.9 SSE 12 19 1018.2 - 0.0 - - - - - - -
01/08:30am 15.5 S 11 16 1017.8 - 0.0 - - - - - - -
01/08:00am 15.0 SSE 12 18 1017.6 - 0.0 - - - - - - -
01/07:30am 14.3 S 11 16 1017.2 - 0.0 - - - - - - -
01/07:00am 14.6 S 11 15 1016.9 - 0.0 - - - - - - -
01/06:30am 14.6 SSE 10 13 1016.8 - 0.0 - - - - - - -
01/06:00am 14.5 SSE 9 12 1016.5 - 0.0 - - - - - - -
01/05:30am 14.4 SSE 8 11 1016.3 - 0.0 - - - - - - -
01/05:00am 14.3 SSE 9 12 1016.1 - 0.0 - - - - - - -
01/04:30am 14.2 SSE 9 12 1016.1 - 0.0 - - - - - - -
01/04:00am 14.3 S 10 14 1016.3 - 0.0 - - - - - - -
01/03:30am 14.2 SSE 9 14 1016.5 - 0.0 - - - - - - -
01/03:00am 14.7 SSE 9 13 1016.6 - 0.0 - - - - - - -
01/02:30am 14.1 SSE 9 12 1017.0 - 0.0 - - - - - - -
01/02:00am 14.7 SSE 13 17 1017.1 - 0.0 - - - - - - -
01/01:30am 14.6 SSE 13 19 1017.4 - 0.0 - - - - - - -
01/01:00am 14.8 SSE 12 20 1017.4 - 0.0 - - - - - - -
01/12:30am 15.2 SSE 13 17 1017.5 - 0.0 - - - - - - -
01/12:00am 15.2 S 13 19 1017.5 - 0.0 - - - - - - -
 
Date/Time
CDT
Temp

°C
Wind Pressure Rain
since 9am
mm
Weather Cloud Vis
km
Sea
Height
m
Swell
Dir
 
Speed
knots
Gust
knots
hPa Trend Height
m
Period
s
Dir
31/11:30pm 14.7 SSE 9 13 1017.6 - 0.0 - - - - - - -
31/11:00pm 14.8 SSE 13 18 1017.6 - 0.0 - - - - - - -
31/10:30pm 14.1 SSE 11 15 1017.7 - 0.0 - - - - - - -
31/10:00pm 14.0 SSE 10 13 1017.6 - 0.0 - - - - - - -
31/09:30pm 14.5 SSE 11 14 1017.4 - 0.0 - - - - - - -
31/09:00pm 14.5 SSE 12 18 1017.2 - 0.0 - - - - - - -
31/08:30pm 14.9 SSE 13 20 1017.1 - 0.0 - - - - - - -
31/08:00pm 15.3 SSE 15 22 1017.0 - 0.0 - - - - - - -
31/07:30pm 16.0 S 15 20 1016.9 - 0.0 - - - - - - -
31/07:00pm 16.6 S 17 23 1016.6 - 0.0 - - - - - - -
31/06:30pm 17.1 S 20 27 1016.3 - 0.0 - - - - - - -
31/06:00pm 17.9 S 19 25 1016.3 - 0.0 - - - - - - -
31/05:30pm 17.8 S 17 27 1016.1 - 0.0 - - - - - - -
31/05:19pm 18.0 S 17 27 1016.3 - 0.0 - - - - - - -
31/05:00pm 17.9 S 18 25 1016.3 - 0.0 - - - - - - -
31/04:30pm 18.3 SSE 18 26 1016.2 - 0.0 - - - - - - -
31/04:00pm 20.0 S 17 26 1016.4 - 0.0 - - - - - - -
31/03:53pm 20.0 S 17 27 1016.4 - 0.0 - - - - - - -
31/03:30pm 18.2 S 17 24 1016.5 - 0.0 - - - - - - -
31/03:14pm 19.4 S 17 28 1016.4 - 0.0 - - - - - - -
31/03:00pm 19.5 S 19 26 1016.5 - 0.0 - - - - - - -
31/02:30pm 20.1 S 20 27 1016.5 - 0.0 - - - - - - -
31/02:00pm 20.3 S 19 25 1016.5 - 0.0 - - - - - - -
31/01:30pm 19.1 S 19 25 1016.6 - 0.0 - - - - - - -
31/01:03pm 18.9 SSE 17 27 1016.8 - 0.0 - - - - - - -
31/01:00pm 19.4 SSE 17 25 1016.9 - 0.0 - - - - - - -
31/12:30pm 16.5 SSE 19 29 1017.3 - 0.0 - - - - - - -
31/12:29pm 16.5 SSE 18 29 1017.3 - 0.0 - - - - - - -
31/12:00pm 17.8 S 16 22 1017.5 - 0.0 - - - - - - -
31/11:30am 17.9 S 15 22 1017.6 - 0.0 - - - - - - -
31/11:00am 17.7 SSE 14 19 1017.4 - 0.0 - - - - - - -
31/10:30am 17.4 SSE 12 20 1017.3 - 0.0 - - - - - - -
31/10:00am 16.9 SSE 12 17 1017.3 - 0.0 - - - - - - -
31/09:30am 17.0 SSE 10 15 1017.4 - 0.0 - - - - - - -
31/09:00am 16.3 SSE 12 16 1017.4 - 0.0 - - - - - - -
31/08:30am 16.3 SSE 11 16 1017.3 - 0.0 - - - - - - -
31/08:00am 15.8 SSE 11 16 1016.6 - 0.0 - - - - - - -
31/07:30am 15.4 SSE 11 16 1016.1 - 0.0 - - - - - - -
31/07:00am 15.1 SSE 10 17 1015.7 - 0.0 - - - - - - -
31/06:30am 15.2 SSE 10 13 1015.2 - 0.0 - - - - - - -
31/06:00am 15.3 SSE 10 15 1015.2 - 0.0 - - - - - - -
31/05:30am 15.0 SE 9 13 1015.4 - 0.0 - - - - - - -
31/05:00am 15.2 SSE 14 23 1015.1 - 0.0 - - - - - - -
31/04:30am 15.1 SSE 10 15 1015.6 - 0.0 - - - - - - -
31/04:00am 14.7 SE 12 19 1015.9 - 0.0 - - - - - - -
31/03:30am 14.9 SSE 12 17 1015.6 - 0.0 - - - - - - -
31/03:00am 15.1 SSE 12 17 1015.7 - 0.0 - - - - - - -
31/02:30am 15.0 SSE 9 13 1016.0 - 0.0 - - - - - - -
31/02:00am 14.8 SSE 10 14 1016.1 - 0.0 - - - - - - -
31/01:30am 14.7 SSE 9 13 1016.1 - 0.0 - - - - - - -
31/01:00am 14.9 SSE 10 15 1016.3 - 0.0 - - - - - - -
31/12:30am 14.9 SE 9 12 1016.4 - 0.0 - - - - - - -
31/12:00am 14.7 SE 8 13 1016.5 - 0.0 - - - - - - -
 
Date/Time
CDT
Temp

°C
Wind Pressure Rain
since 9am
mm
Weather Cloud Vis
km
Sea
Height
m
Swell
Dir
 
Speed
knots
Gust
knots
hPa Trend Height
m
Period
s
Dir
30/11:30pm 14.4 SE 8 11 1016.6 - 0.0 - - - - - - -
30/11:00pm 14.8 SE 9 13 1016.5 - 0.0 - - - - - - -
30/10:30pm 15.1 SE 11 16 1016.6 - 0.0 - - - - - - -
30/10:00pm 15.3 SSE 13 19 1016.7 - 0.0 - - - - - - -
30/09:30pm 15.3 SSE 13 19 1016.7 - 0.0 - - - - - - -
30/09:00pm 15.3 SSE 14 18 1016.6 - 0.0 - - - - - - -
30/08:30pm 15.5 SSE 14 20 1016.4 - 0.0 - - - - - - -
30/08:00pm 16.1 SSE 16 25 1016.1 - 0.0 - - - - - - -
30/07:30pm 16.8 SSE 16 26 1016.0 - 0.0 - - - - - - -
30/07:27pm 16.9 SSE 15 26 1016.0 - 0.0 - - - - - - -
30/07:00pm 17.3 SSE 17 24 1015.8 - 0.0 - - - - - - -
30/06:30pm 18.0 S 18 24 1015.9 - 0.0 - - - - - - -
30/06:00pm 18.4 SSE 19 25 1015.8 - 0.0 - - - - - - -
30/05:30pm 18.8 SSE 19 25 1015.8 - 0.0 - - - - - - -
30/05:00pm 19.5 SSE 19 27 1015.9 - 0.0 - - - - - - -
30/04:30pm 19.7 SSE 19 26 1015.9 - 0.0 - - - - - - -
30/04:00pm 20.0 S 19 26 1015.9 - 0.0 - - - - - - -
30/03:30pm 20.0 S 20 26 1016.0 - 0.0 - - - - - - -
30/03:00pm 20.2 S 19 24 1016.3 - 0.0 - - - - - - -
30/02:30pm 20.1 S 18 23 1016.6 - 0.0 - - - - - - -
30/02:00pm 20.6 S 18 23 1017.0 - 0.0 - - - - - - -
30/01:30pm 21.0 S 17 21 1017.1 - 0.0 - - - - - - -
30/01:00pm 20.3 S 15 20 1017.5 - 0.0 - - - - - - -
30/12:30pm 21.0 S 16 21 1018.0 - 0.0 - - - - - - -
30/12:00pm 21.1 S 12 18 1018.3 - 0.0 - - - - - - -
30/11:30am 20.8 SSE 10 15 1018.6 - 0.0 - - - - - - -
30/11:00am 20.0 SSE 8 13 1018.8 - 0.0 - - - - - - -
30/10:30am 18.8 SSE 9 13 1019.1 - 0.0 - - - - - - -
30/10:00am 18.4 SSE 9 13 1019.2 - 0.0 - - - - - - -
30/09:30am 17.4 SSE 10 14 1019.2 - 0.0 - - - - - - -
30/09:00am 17.5 SE 9 13 1019.4 - 0.0 - - - - - - -
30/08:30am 16.2 SE 8 12 1019.4 - 0.0 - - - - - - -
30/08:00am 14.8 SSE 7 11 1019.3 - 0.0 - - - - - - -

Other Formats:

Comma delimited format used in spreadsheet applications
http://www.bom.gov.au/fwo/IDS60701/IDS60701.95816.axf

JavaScript Object Notation format (JSON) in row-major order
http://www.bom.gov.au/fwo/IDS60701/IDS60701.95816.json